Time;durP1;ratioP1;P1;durP2;ratioP2;P2;SDS_P1;SDS_P2;PMS_P1;PMS_P2;Temp;Humidity;BMP_temperature;BMP_pressure;BME280_temperature;BME280_humidity;BME280_pressure;Samples;Min_cycle;Max_cycle;Signal;HPM_P1;HPM_P2
2022/03/27 00:00:16;;;;;;;20.65;11.53;;;;;;;6.63;96.58;99297.13;1770412;80;21150;-84
2022/03/27 00:03:21;;;;;;;21.27;13.50;;;;;;;6.58;96.92;99289.98;1772599;80;21747;-77
2022/03/27 00:06:26;;;;;;;23.95;12.13;;;;;;;6.53;97.81;99288.30;1771872;81;21177;-77
2022/03/27 00:09:34;;;;;;;24.25;12.18;;;;;;;6.50;98.21;99285.11;1771859;81;21157;-77
2022/03/27 00:12:40;;;;;;;21.50;11.78;;;;;;;6.46;98.64;99276.45;1771007;81;21189;-85
2022/03/27 00:15:46;;;;;;;17.57;11.40;;;;;;;6.41;98.76;99276.14;1768718;80;21161;-84
2022/03/27 00:18:52;;;;;;;19.15;11.95;;;;;;;6.37;98.90;99278.34;1771931;80;21194;-84
2022/03/27 00:21:52;;;;;;;16.77;12.27;;;;;;;6.33;99.20;99277.00;1772244;80;21187;-84
2022/03/27 00:24:58;;;;;;;20.80;11.60;;;;;;;6.29;99.56;99274.29;1771745;81;21115;-78
2022/03/27 00:28:03;;;;;;;16.42;12.60;;;;;;;6.25;99.75;99285.67;1771781;80;21190;-77
2022/03/27 00:31:10;;;;;;;19.77;12.60;;;;;;;6.22;99.99;99280.09;1771810;80;21186;-77
2022/03/27 00:34:18;;;;;;;20.17;12.50;;;;;;;6.18;99.97;99269.23;1769887;81;21154;-77
2022/03/27 00:37:24;;;;;;;16.25;9.53;;;;;;;6.14;100.00;99273.31;1768617;80;21189;-77
2022/03/27 00:40:30;;;;;;;18.67;11.63;;;;;;;6.09;100.00;99271.13;1766568;81;21228;-77
2022/03/27 00:43:36;;;;;;;25.90;12.85;;;;;;;6.07;100.00;99269.10;1770645;81;21142;-77
2022/03/27 00:46:41;;;;;;;19.20;11.85;;;;;;;6.06;100.00;99269.25;1769818;81;21197;-83
2022/03/27 00:49:45;;;;;;;21.85;12.03;;;;;;;6.07;100.00;99269.58;1771422;80;21161;-77
2022/03/27 00:52:46;;;;;;;22.17;12.40;;;;;;;6.10;100.00;99267.38;1769759;80;21228;-84
2022/03/27 00:55:51;;;;;;;29.85;14.00;;;;;;;6.13;100.00;99267.05;1770164;81;21265;-77
2022/03/27 00:58:52;;;;;;;35.43;13.90;;;;;;;6.16;100.00;99260.41;1770303;81;21181;-83
2022/03/27 01:01:59;;;;;;;21.60;13.88;;;;;;;6.17;100.00;99266.20;1770460;81;21220;-77
2022/03/27 01:05:05;;;;;;;22.22;14.13;;;;;;;6.18;100.00;99267.03;1770769;80;21154;-77
2022/03/27 01:08:13;;;;;;;20.43;13.18;;;;;;;6.19;100.00;99266.85;1769486;80;21201;-77
2022/03/27 01:11:27;;;;;;;27.13;14.60;;;;;;;6.20;100.00;99264.47;1771547;81;21179;-77
2022/03/27 01:14:39;;;;;;;27.27;15.00;;;;;;;6.20;99.67;99269.90;1770837;81;21154;-78
2022/03/27 01:17:46;;;;;;;23.70;15.03;;;;;;;6.19;99.07;99260.58;1770022;81;21229;-77
2022/03/27 01:20:53;;;;;;;21.33;14.60;;;;;;;6.19;98.54;99272.28;1770065;79;21730;-84
2022/03/27 01:23:58;;;;;;;20.32;14.00;;;;;;;6.17;98.15;99274.34;1769822;81;21170;-84
2022/03/27 01:27:03;;;;;;;23.73;14.38;;;;;;;6.14;97.79;99266.02;1769987;81;21165;-84
2022/03/27 01:30:02;;;;;;;28.98;15.25;;;;;;;6.12;97.45;99265.87;1769808;81;21146;-84
2022/03/27 01:33:13;;;;;;;29.30;15.90;;;;;;;6.11;97.14;99260.92;1771293;80;21750;-77
2022/03/27 01:36:18;;;;;;;12.53;6.62;;;;;;;6.13;96.97;99255.34;1769958;80;21778;-77
2022/03/27 01:39:23;;;;;;;7.75;2.10;;;;;;;6.11;89.99;99372.23;1769291;81;21731;-84
2022/03/27 01:42:29;;;;;;;5.28;1.70;;;;;;;5.68;80.54;99403.23;1770629;81;21193;-77
2022/03/27 01:45:34;;;;;;;4.78;1.30;;;;;;;5.02;79.14;99444.20;1768996;81;21200;-84
2022/03/27 01:48:39;;;;;;;5.47;1.77;;;;;;;4.50;80.82;99444.73;1771616;80;21149;-78
2022/03/27 01:51:47;;;;;;;2.10;0.98;;;;;;;4.10;82.85;99438.85;1770603;80;21162;-84
2022/03/27 01:54:52;;;;;;;2.55;1.00;;;;;;;3.81;84.61;99458.51;1768513;80;21154;-84
2022/03/27 01:57:57;;;;;;;4.55;1.00;;;;;;;3.52;86.27;99464.12;1771766;81;21189;-84
2022/03/27 02:01:03;;;;;;;1.92;1.12;;;;;;;3.30;87.57;99480.27;1769821;80;21154;-84
2022/03/27 02:04:08;;;;;;;2.12;1.00;;;;;;;3.10;88.95;99484.89;1770627;81;21134;-84
2022/03/27 02:07:14;;;;;;;3.67;2.08;;;;;;;2.94;90.42;99483.34;1770114;79;21185;-84
2022/03/27 02:10:19;;;;;;;1.60;0.80;;;;;;;2.76;91.67;99508.40;1770650;81;21703;-83
2022/03/27 02:13:25;;;;;;;4.37;1.00;;;;;;;2.61;92.33;99495.52;1769652;80;21173;-77
2022/03/27 02:16:31;;;;;;;3.00;1.07;;;;;;;2.44;92.92;99524.09;1769992;81;21217;-84
2022/03/27 02:19:37;;;;;;;1.50;0.90;;;;;;;2.32;93.42;99519.85;1770043;81;21699;-84
2022/03/27 02:22:43;;;;;;;2.05;1.00;;;;;;;2.19;94.01;99522.33;1770233;80;21166;-84
2022/03/27 02:25:50;;;;;;;3.08;0.80;;;;;;;2.12;94.38;99532.00;1772029;80;21748;-84
2022/03/27 02:28:56;;;;;;;2.58;1.10;;;;;;;2.06;94.67;99531.19;1772078;81;21150;-77
2022/03/27 02:32:02;;;;;;;2.10;1.12;;;;;;;2.01;94.83;99514.08;1771198;81;21166;-76
2022/03/27 02:35:08;;;;;;;1.57;0.90;;;;;;;1.98;94.88;99511.69;1772339;80;21157;-81
2022/03/27 02:38:14;;;;;;;2.20;1.35;;;;;;;1.96;94.88;99515.50;1771495;80;21743;-84
2022/03/27 02:41:21;;;;;;;2.95;1.00;;;;;;;1.93;94.99;99530.61;1760258;80;21196;-77
2022/03/27 02:44:27;;;;;;;2.55;1.00;;;;;;;1.88;95.18;99537.77;1743097;82;21156;-77
2022/03/27 02:47:32;;;;;;;8.30;2.35;;;;;;;1.86;95.57;99549.70;1742381;82;21180;-77
2022/03/27 02:50:40;;;;;;;6.75;2.52;;;;;;;1.82;95.81;99555.02;1736067;82;21137;-83
2022/03/27 02:53:46;;;;;;;10.65;3.72;;;;;;;1.78;94.97;99556.63;1733363;81;21165;-77
2022/03/27 02:56:52;;;;;;;10.18;3.42;;;;;;;1.76;94.94;99538.90;1734356;82;21753;-77
2022/03/27 02:59:59;;;;;;;10.28;4.78;;;;;;;1.74;95.36;99536.82;1733395;82;21148;-77
2022/03/27 03:03:05;;;;;;;14.25;5.95;;;;;;;1.67;95.97;99533.84;1733702;82;21193;-81
2022/03/27 03:06:14;;;;;;;19.52;7.55;;;;;;;1.63;96.27;99532.41;1734580;83;21201;-83
2022/03/27 03:09:21;;;;;;;18.73;6.10;;;;;;;1.56;96.77;99520.48;1733327;81;21196;-83
2022/03/27 03:12:26;;;;;;;12.60;5.90;;;;;;;1.48;97.28;99533.30;1733107;82;21243;-76
2022/03/27 03:15:33;;;;;;;10.13;4.95;;;;;;;1.42;97.71;99528.46;1733289;82;21172;-84
2022/03/27 03:18:38;;;;;;;12.07;5.08;;;;;;;1.39;98.21;99531.42;1732639;82;21157;-75
2022/03/27 03:21:44;;;;;;;10.25;4.53;;;;;;;1.37;98.57;99526.67;1732165;83;21757;-76
2022/03/27 03:24:51;;;;;;;10.20;5.25;;;;;;;1.37;98.75;99529.87;1730931;83;21470;-84
2022/03/27 03:27:56;;;;;;;12.68;5.42;;;;;;;1.37;98.79;99536.11;1730924;83;21238;-84
2022/03/27 03:31:02;;;;;;;10.68;5.78;;;;;;;1.39;98.97;99535.95;1733914;83;21140;-84
2022/03/27 03:34:08;;;;;;;8.68;5.33;;;;;;;1.39;98.97;99533.27;1733636;83;21192;-82
2022/03/27 03:37:13;;;;;;;11.93;4.67;;;;;;;1.40;98.83;99534.46;1732080;82;21224;-75
2022/03/27 03:40:19;;;;;;;8.75;3.62;;;;;;;1.41;98.59;99531.27;1739796;82;21161;-83
2022/03/27 03:43:24;;;;;;;8.30;2.83;;;;;;;1.39;98.15;99533.27;1761262;80;22120;-76
2022/03/27 03:46:30;;;;;;;13.62;1.75;;;;;;;1.36;97.74;99544.30;1771611;81;21185;-76
2022/03/27 03:49:36;;;;;;;4.12;1.67;;;;;;;1.32;97.40;99547.80;1771615;81;21189;-83
2022/03/27 03:52:42;;;;;;;5.08;1.45;;;;;;;1.28;97.16;99540.47;1771688;81;21173;-82
2022/03/27 03:55:48;;;;;;;7.90;1.65;;;;;;;1.24;97.09;99545.77;1771592;81;21139;-80
2022/03/27 03:58:54;;;;;;;5.70;1.87;;;;;;;1.23;96.96;99552.64;1771684;81;21589;-83
2022/03/27 04:02:01;;;;;;;6.95;1.98;;;;;;;1.26;96.18;99565.33;1771309;81;21739;-76
2022/03/27 04:05:07;;;;;;;4.40;1.22;;;;;;;1.34;94.61;99555.73;1771678;81;21141;-76
2022/03/27 04:08:14;;;;;;;10.30;1.87;;;;;;;1.45;93.56;99563.20;1771600;80;21853;-76
2022/03/27 04:11:20;;;;;;;8.55;1.65;;;;;;;1.54;93.35;99570.97;1771575;81;21189;-83
2022/03/27 04:14:28;;;;;;;5.55;1.80;;;;;;;1.61;93.25;99576.19;1771562;81;21727;-77
2022/03/27 04:17:33;;;;;;;3.75;1.20;;;;;;;1.65;93.21;99573.58;1770064;80;21188;-83
2022/03/27 04:20:39;;;;;;;4.40;1.25;;;;;;;1.70;93.23;99582.60;1771668;81;21173;-76
2022/03/27 04:23:45;;;;;;;3.80;1.22;;;;;;;1.72;93.02;99580.61;1771451;79;21177;-83
2022/03/27 04:26:50;;;;;;;2.65;1.22;;;;;;;1.71;92.69;99586.50;1771759;81;21185;-83
2022/03/27 04:29:56;;;;;;;4.40;1.45;;;;;;;1.70;92.26;99580.75;1771695;81;21149;-83
2022/03/27 04:33:02;;;;;;;7.33;1.22;;;;;;;1.70;91.54;99590.19;1771523;81;21778;-76
2022/03/27 04:36:09;;;;;;;5.00;1.35;;;;;;;1.69;90.30;99590.31;1771573;81;21656;-83
2022/03/27 04:39:15;;;;;;;15.93;1.65;;;;;;;1.74;88.18;99587.58;1763681;79;21236;-83
2022/03/27 04:42:20;;;;;;;6.70;1.45;;;;;;;1.86;84.18;99594.20;1771657;81;21208;-84
2022/03/27 04:45:25;;;;;;;4.53;1.20;;;;;;;1.99;81.95;99596.15;1771987;80;21146;-83
2022/03/27 04:48:32;;;;;;;10.28;2.55;;;;;;;2.12;81.49;99606.66;1771862;81;21166;-76
2022/03/27 04:51:38;;;;;;;8.40;1.55;;;;;;;2.18;79.54;99608.82;1765011;81;21158;-76
2022/03/27 04:54:43;;;;;;;6.65;1.80;;;;;;;2.27;79.69;99599.39;1779050;80;21181;-83
2022/03/27 04:57:50;;;;;;;6.08;1.40;;;;;;;2.36;79.93;99608.98;1769532;81;21753;-82
2022/03/27 05:00:57;;;;;;;5.20;1.47;;;;;;;2.44;76.07;99612.66;1770680;81;21186;-83
2022/03/27 05:04:03;;;;;;;6.55;1.40;;;;;;;2.55;75.92;99621.14;1770771;81;21149;-76
2022/03/27 05:07:10;;;;;;;6.83;1.50;;;;;;;2.64;74.18;99631.59;1767872;80;21177;-83
2022/03/27 05:10:15;;;;;;;3.62;1.27;;;;;;;2.74;74.44;99623.84;1770247;79;21730;-76
2022/03/27 05:13:21;;;;;;;5.45;1.90;;;;;;;2.85;74.10;99628.73;1770201;81;21185;-76
2022/03/27 05:16:26;;;;;;;3.77;1.55;;;;;;;2.92;70.87;99642.03;1770297;81;21487;-77
2022/03/27 05:19:32;;;;;;;5.33;1.70;;;;;;;2.98;71.21;99643.64;1769843;80;21161;-84
2022/03/27 05:22:38;;;;;;;6.17;1.52;;;;;;;3.05;70.96;99652.86;1769205;81;21185;-84
2022/03/27 05:25:45;;;;;;;7.15;1.22;;;;;;;3.13;70.78;99660.25;1768915;80;21169;-83
2022/03/27 05:28:53;;;;;;;7.08;2.15;;;;;;;3.20;71.00;99656.46;1775804;80;21146;-77
2022/03/27 05:31:58;;;;;;;10.25;1.20;;;;;;;3.25;70.96;99656.91;1769183;81;21165;-76
2022/03/27 05:35:05;;;;;;;10.85;1.70;;;;;;;3.27;69.61;99660.30;1768451;80;21185;-76
2022/03/27 05:38:11;;;;;;;6.28;1.60;;;;;;;3.32;67.93;99651.26;1781119;80;21213;-76
2022/03/27 05:41:17;;;;;;;4.62;1.20;;;;;;;3.40;66.76;99669.47;1785311;79;21181;-76
2022/03/27 05:44:22;;;;;;;3.50;1.10;;;;;;;3.47;66.42;99667.86;1765007;81;21237;-77
2022/03/27 05:47:27;;;;;;;8.15;1.20;;;;;;;3.50;63.92;99660.31;1771702;81;21747;-76
2022/03/27 05:50:32;;;;;;;5.67;1.87;;;;;;;3.52;63.55;99679.94;1771665;81;21153;-76
2022/03/27 05:53:38;;;;;;;2.77;1.10;;;;;;;3.56;59.80;99679.16;1771846;81;21153;-82
2022/03/27 05:56:44;;;;;;;8.60;1.47;;;;;;;3.59;60.68;99682.92;1771494;79;21162;-83
2022/03/27 05:59:50;;;;;;;5.97;1.17;;;;;;;3.65;60.36;99678.27;1771660;81;21142;-77
2022/03/27 06:02:57;;;;;;;6.83;1.50;;;;;;;3.76;59.20;99676.72;1771716;81;21193;-76
2022/03/27 06:06:04;;;;;;;6.72;1.60;;;;;;;3.84;58.42;99677.34;1770192;80;21149;-76
2022/03/27 06:09:10;;;;;;;11.63;1.37;;;;;;;3.89;56.19;99695.34;1771746;81;22033;-82
2022/03/27 06:12:18;;;;;;;4.80;2.10;;;;;;;3.95;54.00;99729.06;1770828;79;21150;-76
2022/03/27 06:15:24;;;;;;;5.92;1.50;;;;;;;4.14;56.97;99721.36;1771140;81;21268;-81
2022/03/27 06:18:30;;;;;;;4.45;1.55;;;;;;;4.36;54.44;99706.93;1770082;81;21193;-83
2022/03/27 06:21:36;;;;;;;4.25;1.32;;;;;;;4.41;52.06;99713.25;1771308;81;21185;-76
2022/03/27 06:24:42;;;;;;;8.15;1.80;;;;;;;4.33;52.11;99707.25;1771530;81;21157;-83
2022/03/27 06:27:49;;;;;;;9.50;1.50;;;;;;;4.31;54.09;99711.10;1770523;81;21718;-83
2022/03/27 06:30:54;;;;;;;5.25;1.47;;;;;;;4.28;51.11;99766.42;1771528;81;21154;-79
2022/03/27 06:34:03;;;;;;;4.58;1.32;;;;;;;4.27;52.31;99728.64;1771489;81;21157;-80
2022/03/27 06:37:08;;;;;;;14.58;2.33;;;;;;;4.27;52.05;99739.47;1770097;81;21174;-84
2022/03/27 06:40:15;;;;;;;9.75;1.25;;;;;;;4.14;50.96;99782.27;1771531;81;21162;-77
2022/03/27 06:43:21;;;;;;;10.15;1.72;;;;;;;3.98;52.17;99753.12;1771716;81;21193;-84
2022/03/27 06:46:27;;;;;;;15.32;1.82;;;;;;;3.90;52.96;99758.42;1769018;81;21185;-76
2022/03/27 06:49:33;;;;;;;4.72;1.57;;;;;;;3.92;54.29;99728.88;1771777;81;21759;-84
2022/03/27 06:52:38;;;;;;;6.75;1.65;;;;;;;4.12;52.84;99710.70;1770437;80;21185;-77
2022/03/27 06:55:44;;;;;;;7.00;1.30;;;;;;;4.25;51.14;99755.03;1772087;81;21174;-77
2022/03/27 06:58:50;;;;;;;4.33;1.30;;;;;;;4.32;51.00;99769.16;1770760;81;21699;-82
2022/03/27 07:05:21;;;;;;;6.03;1.42;;;;;;;4.60;51.51;99750.20;1771541;81;21150;-82
2022/03/27 07:08:28;;;;;;;12.28;1.72;;;;;;;4.74;50.21;99761.02;1770125;81;21182;-77
2022/03/27 07:11:34;;;;;;;2.55;1.50;;;;;;;4.61;49.64;99767.67;1769759;80;21209;-77
2022/03/27 07:14:41;;;;;;;11.95;1.30;;;;;;;4.35;52.26;99762.09;1770497;81;21210;-77
2022/03/27 07:17:53;;;;;;;8.43;2.45;;;;;;;3.97;55.01;99797.44;1769598;81;21181;-84
2022/03/27 07:21:01;;;;;;;6.85;2.10;;;;;;;3.51;62.35;99826.11;1769294;81;21153;-77
2022/03/27 07:24:07;;;;;;;5.95;1.70;;;;;;;2.93;70.95;99824.73;1771765;80;21134;-84
2022/03/27 07:27:12;;;;;;;6.87;1.80;;;;;;;2.26;71.81;99849.16;1770444;80;21201;-84
2022/03/27 07:30:18;;;;;;;3.62;1.47;;;;;;;1.92;69.81;99804.02;1772220;80;21730;-77
2022/03/27 07:33:24;;;;;;;9.08;1.30;;;;;;;1.84;68.37;99810.59;1771887;81;21221;-84
2022/03/27 07:36:31;;;;;;;3.33;1.35;;;;;;;2.04;67.40;99798.91;1771564;81;21170;-84
2022/03/27 07:39:37;;;;;;;2.85;1.00;;;;;;;2.59;63.23;99810.22;1772091;80;21184;-77
2022/03/27 07:42:49;;;;;;;2.70;0.90;;;;;;;3.21;59.42;99773.06;1771827;79;21170;-77
2022/03/27 07:45:54;;;;;;;3.67;1.40;;;;;;;3.57;55.25;99797.14;1771912;81;21707;-83
2022/03/27 07:48:59;;;;;;;3.65;1.65;;;;;;;3.67;54.81;99819.64;1772371;80;21146;-77
2022/03/27 07:52:06;;;;;;;4.30;1.60;;;;;;;3.59;56.63;99824.91;1769205;81;21763;-77
2022/03/27 07:55:13;;;;;;;7.17;2.30;;;;;;;3.36;60.07;99837.01;1769632;81;21641;-84
2022/03/27 07:58:20;;;;;;;5.05;1.90;;;;;;;3.16;60.23;99839.70;1782087;79;21173;-84
2022/03/27 08:01:28;;;;;;;3.90;1.45;;;;;;;3.06;58.54;99864.51;1782301;80;21228;-83
2022/03/27 08:04:34;;;;;;;5.17;1.62;;;;;;;3.08;58.29;99833.63;1785232;80;21157;-80
2022/03/27 08:07:41;;;;;;;4.67;1.70;;;;;;;3.24;57.82;99851.98;1733249;83;21223;-77
2022/03/27 08:10:48;;;;;;;5.22;1.67;;;;;;;3.37;56.78;99824.69;1769406;81;21782;-84
2022/03/27 08:13:54;;;;;;;3.65;1.77;;;;;;;3.41;57.93;99853.16;1767967;80;21622;-84
2022/03/27 08:17:00;;;;;;;5.60;1.80;;;;;;;3.38;58.85;99849.37;1768526;81;21173;-77
2022/03/27 08:20:07;;;;;;;7.15;1.95;;;;;;;3.29;58.18;99851.57;1768987;81;21170;-76
2022/03/27 08:23:13;;;;;;;4.62;2.15;;;;;;;3.24;57.62;99853.34;1767536;81;21197;-84
2022/03/27 08:29:44;;;;;;;2.15;1.05;;;;;;;3.31;52.59;99857.20;1769959;79;21229;-84
2022/03/27 08:32:50;;;;;;;6.53;1.10;;;;;;;3.46;53.33;99840.56;1769146;81;21182;-84
2022/03/27 08:35:55;;;;;;;2.95;1.10;;;;;;;3.72;54.01;99861.14;1769172;81;21162;-77
2022/03/27 08:39:02;;;;;;;3.35;1.25;;;;;;;4.09;53.65;99826.02;1769644;81;21173;-77
2022/03/27 08:42:07;;;;;;;11.50;1.60;;;;;;;4.17;51.94;99845.59;1782404;80;21691;-77
2022/03/27 08:45:13;;;;;;;1.70;1.15;;;;;;;3.84;58.36;99863.53;1776552;80;21181;-84
2022/03/27 08:48:19;;;;;;;2.05;1.00;;;;;;;3.51;57.46;99881.55;1775535;80;21197;-77
2022/03/27 08:51:41;;;;;;;1.32;0.70;;;;;;;3.38;54.70;99866.95;1768963;81;21154;-84
2022/03/27 08:54:57;;;;;;;7.10;1.45;;;;;;;3.31;56.28;99856.36;1769525;81;21198;-77
2022/03/27 08:58:07;;;;;;;1.60;0.72;;;;;;;3.17;55.32;99877.89;1770712;79;21785;-83
2022/03/27 09:01:13;;;;;;;6.47;1.32;;;;;;;3.11;54.94;99889.77;1771835;81;21725;-83
2022/03/27 09:04:19;;;;;;;2.83;1.30;;;;;;;3.22;58.86;99904.00;1769510;81;21217;-82
2022/03/27 09:07:25;;;;;;;4.67;2.00;;;;;;;3.37;58.10;99904.95;1769838;81;21169;-82
2022/03/27 09:10:32;;;;;;;4.75;1.37;;;;;;;3.51;54.87;99908.09;1770543;81;21706;-84
2022/03/27 09:13:39;;;;;;;4.78;1.00;;;;;;;3.66;48.82;99901.76;1769903;80;21850;-76
2022/03/27 09:17:12;;;;;;;1.52;0.72;;;;;;;3.63;43.82;99884.48;1768616;79;21750;-83
2022/03/27 09:20:19;;;;;;;2.90;1.00;;;;;;;3.54;44.87;99898.36;1769562;81;21178;-76
2022/03/27 09:23:36;;;;;;;1.47;0.75;;;;;;;3.81;46.21;99921.12;1770534;80;21208;-76
2022/03/27 09:26:42;;;;;;;10.20;0.85;;;;;;;3.93;43.70;99879.91;1769704;80;21197;-84
2022/03/27 09:30:07;;;;;;;7.33;0.90;;;;;;;3.89;43.44;99876.63;1770861;80;21521;-75
2022/03/27 09:33:13;;;;;;;2.25;0.95;;;;;;;4.02;42.37;99891.22;1770701;81;21719;-76
2022/03/27 09:36:23;;;;;;;6.97;1.20;;;;;;;4.27;41.12;99923.08;1769971;81;21173;-84
2022/03/27 09:39:28;;;;;;;8.95;0.90;;;;;;;4.15;39.78;99920.20;1769999;81;21288;-83
2022/03/27 09:42:28;;;;;;;5.67;1.00;;;;;;;4.02;40.40;99918.28;1746376;81;21185;-76
2022/03/27 09:45:33;;;;;;;7.62;1.00;;;;;;;3.90;40.34;99917.56;1762948;79;21216;-76
2022/03/27 09:48:39;;;;;;;7.03;1.30;;;;;;;3.89;40.76;99946.13;1771669;80;21210;-76
2022/03/27 09:52:14;;;;;;;10.58;2.52;;;;;;;4.08;40.40;99924.46;1773098;80;21173;-76
2022/03/27 09:55:18;;;;;;;2.47;1.45;;;;;;;4.18;38.65;99940.69;1769249;81;21708;-76
2022/03/27 09:58:26;;;;;;;5.55;2.00;;;;;;;4.06;38.68;99925.12;1760924;81;21742;-76
2022/03/27 10:01:32;;;;;;;2.60;1.07;;;;;;;4.06;38.77;99944.06;1769866;81;21185;-77
2022/03/27 10:04:39;;;;;;;6.62;1.35;;;;;;;4.12;38.90;99925.03;1770096;81;21223;-83
2022/03/27 10:08:01;;;;;;;4.50;1.20;;;;;;;4.17;38.71;99935.78;1770309;81;21839;-83
2022/03/27 10:11:07;;;;;;;3.02;1.02;;;;;;;4.12;38.85;99985.44;1769194;81;21189;-84
2022/03/27 10:14:12;;;;;;;1.72;0.90;;;;;;;4.07;39.50;99964.71;1771250;80;21142;-83
2022/03/27 10:17:17;;;;;;;5.37;1.00;;;;;;;4.09;39.11;99957.29;1769198;81;21201;-76
2022/03/27 10:20:25;;;;;;;8.93;0.82;;;;;;;4.06;38.67;99979.25;1767908;81;21158;-83
2022/03/27 10:23:31;;;;;;;2.15;1.10;;;;;;;4.02;38.93;99958.38;1767736;80;21154;-76
2022/03/27 10:26:37;;;;;;;6.62;1.00;;;;;;;3.99;39.39;99965.92;1769334;81;21165;-83
2022/03/27 10:29:43;;;;;;;3.75;1.45;;;;;;;3.96;38.08;99978.40;1771190;81;21177;-76
2022/03/27 10:32:49;;;;;;;5.33;0.90;;;;;;;4.00;38.39;99973.03;1761046;81;21189;-83
2022/03/27 10:36:05;;;;;;;3.52;1.10;;;;;;;4.04;38.98;99977.16;1757696;81;21162;-82
2022/03/27 10:39:40;;;;;;;11.08;1.42;;;;;;;4.06;38.26;99968.42;1756130;80;21697;-83
2022/03/27 10:43:05;;;;;;;1.47;1.00;;;;;;;3.97;38.42;99978.75;1756014;80;21189;-82
2022/03/27 10:46:29;;;;;;;8.70;1.05;;;;;;;3.90;38.92;99991.97;1731698;81;21715;-84
2022/03/27 10:49:35;;;;;;;3.95;0.90;;;;;;;3.96;38.93;100008.17;1748176;80;21134;-76
2022/03/27 10:52:42;;;;;;;4.03;1.10;;;;;;;3.92;39.29;100005.38;1785359;80;21227;-76
2022/03/27 10:55:56;;;;;;;2.92;0.90;;;;;;;3.86;39.19;99997.34;1785419;80;21161;-76
2022/03/27 10:59:16;;;;;;;5.10;0.90;;;;;;;3.81;38.80;100026.17;1778049;80;21790;-82
2022/03/27 11:02:25;;;;;;;4.70;0.95;;;;;;;3.85;39.07;100005.92;1785363;80;21189;-76
2022/03/27 11:05:42;;;;;;;9.95;1.15;;;;;;;3.84;39.56;100019.60;1745268;81;21154;-84
2022/03/27 11:08:51;;;;;;;2.92;1.95;;;;;;;3.74;39.73;100025.00;1739817;82;21157;-77
2022/03/27 11:12:05;;;;;;;1.85;1.10;;;;;;;3.75;40.11;100041.58;1739156;82;21758;-77
2022/03/27 11:16:23;;;;;;;5.00;1.20;;;;;;;3.81;40.05;100026.17;1721323;81;21893;-83
2022/03/27 11:19:54;;;;;;;6.17;1.27;;;;;;;3.87;39.36;100005.80;1737273;82;21723;-84
2022/03/27 11:23:08;;;;;;;6.37;1.42;;;;;;;3.79;39.46;100030.84;1738831;82;21201;-76
2022/03/27 11:26:32;;;;;;;5.83;1.17;;;;;;;3.68;40.57;100031.48;1739151;82;21169;-77
2022/03/27 11:29:37;;;;;;;3.20;1.40;;;;;;;3.63;41.14;100059.44;1742185;82;21216;-77
2022/03/27 11:32:42;;;;;;;3.80;1.00;;;;;;;3.58;40.77;100045.83;1745051;82;21208;-84
2022/03/27 11:36:09;;;;;;;7.65;1.22;;;;;;;3.66;40.78;100032.95;1743604;81;21750;-84
2022/03/27 11:39:16;;;;;;;3.22;1.25;;;;;;;3.73;41.51;100036.82;1739352;82;21731;-77
2022/03/27 11:42:39;;;;;;;3.40;1.32;;;;;;;3.91;41.27;100051.03;1737873;81;21676;-76
2022/03/27 11:45:45;;;;;;;11.78;1.40;;;;;;;3.95;41.06;100047.91;1739769;81;21162;-84
2022/03/27 11:48:53;;;;;;;2.42;1.02;;;;;;;3.85;41.67;100019.95;1738738;82;21154;-76
2022/03/27 11:52:19;;;;;;;8.43;1.40;;;;;;;3.77;42.18;100033.34;1729995;82;21232;-84
2022/03/27 11:55:26;;;;;;;4.45;1.20;;;;;;;3.90;42.17;100056.06;1740076;82;21209;-77
2022/03/27 11:58:31;;;;;;;3.15;0.95;;;;;;;4.01;40.57;100050.55;1741403;82;21715;-77
2022/03/27 12:01:37;;;;;;;11.85;1.42;;;;;;;3.88;40.42;100052.66;1738981;81;21240;-84
2022/03/27 12:04:45;;;;;;;2.55;1.17;;;;;;;3.78;42.19;100068.88;1739276;82;21841;-83
2022/03/27 12:08:02;;;;;;;3.02;1.17;;;;;;;3.66;43.19;100055.09;1739492;82;21248;-76
2022/03/27 12:11:08;;;;;;;4.33;1.00;;;;;;;3.70;44.49;100061.44;1737649;82;21165;-83
2022/03/27 12:14:16;;;;;;;6.97;1.20;;;;;;;3.91;44.05;100057.30;1737368;82;21719;-77
2022/03/27 12:17:24;;;;;;;2.05;1.00;;;;;;;4.12;41.27;100051.75;1741156;81;21185;-83
2022/03/27 12:20:31;;;;;;;1.00;0.88;;;;;;;4.16;39.94;100019.34;1739772;82;21192;-83
2022/03/27 12:23:44;;;;;;;5.58;0.80;;;;;;;4.05;40.38;100048.77;1739433;81;21726;-76
2022/03/27 12:30:15;;;;;;;4.12;1.17;;;;;;;4.06;41.66;100067.22;1740379;82;21209;-76
2022/03/27 12:33:21;;;;;;;7.37;2.08;;;;;;;3.95;43.29;100095.73;1739223;81;21820;-76
2022/03/27 12:36:28;;;;;;;12.10;1.82;;;;;;;3.47;52.73;100103.20;1741088;82;21217;-83
2022/03/27 12:39:34;;;;;;;10.00;1.50;;;;;;;2.79;55.05;100107.74;1740187;82;21200;-84
2022/03/27 12:42:51;;;;;;;8.05;1.62;;;;;;;2.42;54.35;100118.11;1739578;82;21753;-83
2022/03/27 12:45:58;;;;;;;12.25;1.67;;;;;;;2.37;51.16;100085.74;1739694;82;21162;-83
2022/03/27 12:49:10;;;;;;;1.98;1.37;;;;;;;2.48;50.32;100058.19;1741378;82;21201;-84
2022/03/27 12:52:18;;;;;;;6.35;1.50;;;;;;;2.73;49.10;100099.29;1743640;82;21177;-83
2022/03/27 12:55:30;;;;;;;4.47;1.25;;;;;;;2.94;46.85;100101.51;1740316;82;21154;-82
2022/03/27 12:58:47;;;;;;;7.65;1.52;;;;;;;3.16;42.21;100101.01;1738711;82;21146;-77
2022/03/27 13:01:53;;;;;;;16.27;1.42;;;;;;;3.35;41.19;100071.36;1739452;81;21192;-84
2022/03/27 13:05:06;;;;;;;11.95;2.42;;;;;;;3.38;40.91;100089.14;1740994;82;21805;-84
2022/03/27 13:08:12;;;;;;;4.35;1.30;;;;;;;3.30;41.57;100127.69;1742519;82;21749;-84
2022/03/27 13:11:30;;;;;;;8.88;1.45;;;;;;;3.20;40.76;100126.29;1743253;82;21196;-76
2022/03/27 13:14:35;;;;;;;9.23;1.47;;;;;;;3.17;39.93;100104.06;1744072;82;21150;-77
2022/03/27 13:17:42;;;;;;;5.40;1.45;;;;;;;3.15;40.13;100120.89;1738721;81;21217;-84
2022/03/27 13:20:48;;;;;;;5.72;1.10;;;;;;;3.17;40.66;100134.65;1747973;81;21193;-84
2022/03/27 13:23:55;;;;;;;4.08;1.10;;;;;;;3.15;39.62;100144.72;1752906;82;21169;-83
2022/03/27 13:27:11;;;;;;;2.75;1.00;;;;;;;3.03;40.18;100140.39;1753841;82;21232;-77
2022/03/27 13:30:18;;;;;;;1.22;1.02;;;;;;;2.95;41.16;100162.66;1751848;82;21165;-83
2022/03/27 13:33:24;;;;;;;4.42;1.37;;;;;;;2.86;40.64;100154.48;1739085;81;21176;-76
2022/03/27 13:36:30;;;;;;;2.58;1.20;;;;;;;2.73;41.57;100175.80;1738803;82;21173;-83
2022/03/27 13:39:36;;;;;;;9.48;1.20;;;;;;;2.61;43.34;100171.92;1739802;82;21687;-77
2022/03/27 13:43:00;;;;;;;5.95;1.20;;;;;;;2.41;44.23;100184.39;1738305;82;21731;-83
2022/03/27 13:46:09;;;;;;;9.63;1.15;;;;;;;2.27;45.63;100178.78;1750167;82;21150;-83
2022/03/27 13:49:14;;;;;;;1.45;1.10;;;;;;;2.22;44.12;100167.51;1754291;80;21260;-76
2022/03/27 13:52:20;;;;;;;1.15;0.90;;;;;;;2.22;43.18;100179.16;1743215;82;21181;-76
2022/03/27 13:55:26;;;;;;;2.20;1.10;;;;;;;2.22;44.25;100161.61;1740940;82;21209;-82
2022/03/27 13:58:34;;;;;;;1.47;0.85;;;;;;;2.23;44.43;100203.80;1739800;82;21178;-77
2022/03/27 14:01:40;;;;;;;1.72;1.40;;;;;;;2.27;43.43;100191.78;1740107;82;21208;-76
2022/03/27 14:04:46;;;;;;;1.85;1.25;;;;;;;2.29;42.90;100216.78;1739624;80;21189;-76
2022/03/27 14:07:51;;;;;;;5.12;1.20;;;;;;;2.34;42.52;100204.27;1740809;82;21767;-83
2022/03/27 14:10:59;;;;;;;2.02;1.10;;;;;;;2.42;42.17;100191.49;1739701;82;21202;-83
2022/03/27 14:14:05;;;;;;;3.17;1.10;;;;;;;2.48;41.76;100192.33;1739514;82;21157;-77
2022/03/27 14:17:04;;;;;;;2.93;1.30;;;;;;;2.45;41.25;100227.20;1740049;82;21184;-76
2022/03/27 14:20:09;;;;;;;3.47;1.40;;;;;;;2.38;40.54;100227.33;1740561;81;21864;-76
2022/03/27 14:23:15;;;;;;;2.60;1.30;;;;;;;2.34;40.97;100229.91;1740461;82;21489;-84
2022/03/27 14:26:14;;;;;;;4.03;1.20;;;;;;;2.36;41.38;100228.45;1740307;82;21707;-83
2022/03/27 14:29:07;;;;;;;5.40;1.42;;;;;;;2.34;40.54;100216.41;1740732;82;21739;-83
2022/03/27 14:32:13;;;;;;;3.12;1.10;;;;;;;2.29;40.86;100229.42;1740296;82;21174;-77
2022/03/27 14:35:20;;;;;;;11.63;1.00;;;;;;;2.27;40.82;100235.45;1739832;81;21213;-83
2022/03/27 14:38:25;;;;;;;16.65;1.50;;;;;;;2.31;40.99;100249.07;1740691;82;21201;-83
2022/03/27 14:41:32;;;;;;;6.03;1.20;;;;;;;2.36;40.22;100223.05;1739449;82;21193;-77
2022/03/27 14:44:37;;;;;;;13.35;1.22;;;;;;;2.37;40.75;100243.66;1740497;82;21162;-76
2022/03/27 14:47:37;;;;;;;15.55;1.50;;;;;;;2.33;42.93;100259.23;1740782;82;21201;-76
2022/03/27 14:50:43;;;;;;;10.65;1.35;;;;;;;2.22;43.78;100280.36;1741646;81;21193;-75
2022/03/27 14:57:10;;;;;;;8.80;1.57;;;;;;;1.87;45.43;100280.95;1746610;82;21326;-83
2022/03/27 15:00:16;;;;;;;5.67;1.57;;;;;;;1.69;45.81;100292.20;1746692;82;21160;-76